• Join FlightAware (Why Join?)
  • Login
  • US Flag 
05:13PM EDT


 

Airport Tracker/Info


-or-


 

Live Flight TrackerFlight Track Log ✈ N8347C ✈ 21-Aug-2013 ✈ KCOQ - KSTC

Flight Track Log - Related Links

Times and Time Zones

All times are in EDT time to prevent confusion due to time zone crossing. See the N8347C flight status page for this flight to view local times or setup timezone preferences in your user account.

Time Position Orientation Groundspeed Altitude Reporting Facility
EDT Latitude Longitude Course Direction KTS MPH feet Rate Location/Type
03:03PM 46.6447 -92.5831 224° Southwest 100 115 4,000  Level Minneapolis Center
03:04PM 46.6231 -92.6194 229° Southwest 106 122 4,000  Level Minneapolis Center
03:05PM 46.5989 -92.6556 226° Southwest 114 131 4,000  Level Minneapolis Center
03:06PM 46.5733 -92.6875 221° Southwest 119 137 4,000  Level Minneapolis Center
03:07PM 46.5689 -92.6672 224° Southwest  Level FlightAware Approximate
03:07PM 46.5442 -92.7256 222° Southwest 120 138 4,000  Level Minneapolis Center
03:08PM 46.5480 -92.6966 224° Southwest  Level FlightAware Approximate
03:08PM 46.5178 -92.7597 222° Southwest 121 139 4,000  Level Minneapolis Center
03:09PM 46.4928 -92.7931 223° Southwest 122 140 4,000  Level Minneapolis Center
03:10PM 46.4694 -92.8258 224° Southwest 121 139 4,000  Level Minneapolis Center
03:11PM 46.4458 -92.8569 222° Southwest 118 136 4,100 60 Climbing Minneapolis Center
03:12PM 46.4217 -92.8897 223° Southwest 118 136 4,200 -60 Climbing Minneapolis Center
03:13PM 46.3917 -92.9325 225° Southwest 121 139 4,000 -120 Descending Minneapolis Center
03:14PM 46.3658 -92.9661 222° Southwest 124 143 4,000  Level Minneapolis Center
03:15PM 46.3417 -92.9972 222° Southwest 122 140 4,000  Level Minneapolis Center
03:16PM 46.3172 -93.0286 222° Southwest 119 137 4,000  Level Minneapolis Center
03:17PM 46.2925 -93.0619 223° Southwest 120 138 4,000  Level Minneapolis Center
03:18PM 46.2633 -93.1017 223° Southwest 121 139 4,000  Level Minneapolis Center
03:19PM 46.2397 -93.1342 224° Southwest 119 137 4,100  Climbing Minneapolis Center
03:20PM 46.2147 -93.1667 222° Southwest 120 138 4,000 -60 Descending Minneapolis Center
03:21PM 46.1878 -93.2014 222° Southwest 123 142 4,000  Level Minneapolis Center
03:22PM 46.1625 -93.2406 227° Southwest 127 146 4,000  Level Minneapolis Center
03:23PM 46.1381 -93.2711 221° Southwest 124 143 4,000  Level Minneapolis Center
03:24PM 46.1131 -93.3042 223° Southwest 122 140 4,000  Level Minneapolis Center
03:25PM 46.0897 -93.3372 225° Southwest 120 138 4,000  Level Minneapolis Center
03:26PM 46.0608 -93.3761 223° Southwest 119 137 4,000  Level Minneapolis Center
03:27PM 46.0347 -93.4094 222° Southwest 122 140 4,100  Climbing Minneapolis Center
03:28PM 46.0094 -93.4419 222° Southwest 123 142 4,000  Descending Minneapolis Center
03:30PM 45.9769 -93.4878 224° Southwest 122 140 4,100  Climbing Minneapolis Center
03:31PM 45.9528 -93.5219 225° Southwest 127 146 4,000 -60 Descending Minneapolis Center
03:32PM 45.9219 -93.5642 224° Southwest 128 147 4,000  Level Minneapolis Center
03:33PM 45.8975 -93.5989 225° Southwest 128 147 4,000  Level Minneapolis Center
03:34PM 45.8725 -93.6333 224° Southwest 126 145 4,000  Level Minneapolis Center
03:35PM 45.8467 -93.6653 221° Southwest 125 144 4,000  Level Minneapolis Center
03:36PM 45.8214 -93.6947 219° Southwest 123 142 4,000  Level Minneapolis Center
03:37PM 45.7944 -93.7353 226° Southwest 129 148 4,000  Level Minneapolis Center
03:38PM 45.7650 -93.7722 221° Southwest 124 143 4,000  Level Minneapolis Center
03:39PM 45.7394 -93.8050 222° Southwest 125 144 4,000 -120 Level Minneapolis Center
03:40PM 45.7147 -93.8369 222° Southwest 122 140 3,800 -300 Descending Minneapolis Center
03:41PM 45.6878 -93.8694 220° Southwest 125 144 3,500 -120 Descending Minneapolis Center
03:42PM 45.6642 -93.9014 223° Southwest 119 137 3,600  Climbing Minneapolis Center
03:43PM 45.6386 -93.9306 219° Southwest 119 137 3,500 -480 Descending Minneapolis Center
03:44PM 45.6089 -93.9689 222° Southwest 119 137 2,700 -480 Descending Minneapolis Center
03:45PM 45.5847 -94.0000 222° Southwest 119 137 2,600 -120 Descending Minneapolis Center
03:47PM 45.5492 -94.0341 215° Southwest  Level FlightAware Approximate
03:54PM 45.5333 -94.0500 215° Southwest  Level FlightAware Approximate
03:55PM 45.5466 -94.0599 215° Southwest  Level Estimated